Treviso S. Angelo, Italy

11:39 AM CEST on July 07, 2015 (GMT +0200)
ITVTREVI2 | | Change Station
CLOSE
Current Station
Personal Weather Station
Location: Treviso, TV
Elevation: 50 ft
Nearby Weather Stations
Active Advisory: Extreme high temperature

Elev 50 ft 45.65 °N, 12.27 °E | Updated 4 seconds ago

Clear
Clear
93.2 °F
Feels Like 102 °F
N
1.7
Wind Variable Wind from South
Gusts 4.5 mph

Today
High -- | Low -- °F
--% Chance of Precip.
Yesterday
High -- | Low -- °F
Precip. -- in
5:29 AM 9:02 PM
Waning Gibbous, 66% visible
Pressure 30.01 in
Visibility -9999.0 miles
Clouds
Heat Index 102 °F
Dew Point 72 °F
Humidity 51%
Rainfall 0.00 in
Snow Depth Not available.
UV 0.0 out of 12
Pollen Not available.
Air Quality Not available.
Flu Activity Not available.
METAR LIPZ 070920Z 15005KT 120V190 CAVOK 31/21 Q1016

More Conditions Fewer Conditions

Pressure 30.01 in
Visibility -9999.0 miles
Clouds
Heat Index 102 °F
Dew Point 72 °F
Humidity 51%
Rainfall 0.00 in
Snow Depth Not available.
UV 0.0 out of 12
Pollen Not available.
Air Quality Not available.
Flu Activity Not available.
METAR LIPZ 070920Z 15005KT 120V190 CAVOK 31/21 Q1016

More Conditions Fewer Conditions

10-Day Weather Forecast

×

Almanac

Astronomy

Jul. 07, 2015 Rise Set
Actual Time
Civil Twilight
Nautical Twilight
Astronomical Twilight
Moon
Length of Visible Light
Length of Day
Tomorrow will be .
, % of the Moon is Illuminated

Today's Extremes

Country Highs Country Lows

Community

WunderPhotos

Upload Photos

1,835,758 photos uploaded!

WunderBlogs® & News

Nearby

Air Quality

  Air Quality AQ Index Pollutant
Not available.

Snow Depth

Station Depth Elevation

Earthquake Activity

City Distance Mag. Time & Date
Minimum magnitude displayed is 2.5.

Coastal Water Temperatures

Place Temperature

Stations

Nearby Weather Stations

Station Location Temp. Windchill Dew Point Humidity Wind Precip. Elev Updated Type